createdAt,value
2023-06-17T00:01:54.697Z,16.20
2023-06-17T00:04:22.602Z,16.16
2023-06-17T00:06:50.992Z,16.13
2023-06-17T00:09:19.051Z,16.11
2023-06-17T00:11:48.821Z,16.08
2023-06-17T00:14:17.701Z,16.06
2023-06-17T00:16:45.568Z,16.04
2023-06-17T00:19:17.738Z,16.02
2023-06-17T00:21:50.700Z,16.01
2023-06-17T00:24:19.299Z,16.00
2023-06-17T00:26:47.973Z,15.98
2023-06-17T00:29:16.838Z,15.95
2023-06-17T00:31:44.868Z,15.94
2023-06-17T00:34:12.923Z,15.92
2023-06-17T00:36:40.829Z,15.90
2023-06-17T00:39:08.893Z,15.87
2023-06-17T00:41:36.856Z,15.85
2023-06-17T00:44:04.940Z,15.83
2023-06-17T00:46:42.351Z,15.80
2023-06-17T00:49:10.886Z,15.78
2023-06-17T00:51:40.738Z,15.76
2023-06-17T00:54:10.415Z,15.76
2023-06-17T00:56:39.191Z,15.75
2023-06-17T00:59:08.011Z,15.75
2023-06-17T01:01:38.712Z,15.75
2023-06-17T01:04:08.004Z,15.73
2023-06-17T01:06:51.746Z,15.71
2023-06-17T01:09:24.232Z,15.69
2023-06-17T01:11:57.106Z,15.68
2023-06-17T01:14:27.407Z,15.67
2023-06-17T01:16:55.849Z,15.65
2023-06-17T01:19:26.171Z,15.63
2023-06-17T01:21:58.143Z,15.59
2023-06-17T01:24:31.331Z,15.57
2023-06-17T01:27:01.144Z,15.55
2023-06-17T01:29:33.947Z,15.53
2023-06-17T01:32:02.934Z,15.52
2023-06-17T01:34:35.484Z,15.51
2023-06-17T01:37:08.919Z,15.50
2023-06-17T01:39:39.636Z,15.50
2023-06-17T01:42:16.601Z,15.49
2023-06-17T01:44:44.890Z,15.47
2023-06-17T01:47:15.035Z,15.46
2023-06-17T01:49:44.060Z,15.44
2023-06-17T01:52:12.894Z,15.44
2023-06-17T01:54:40.983Z,15.41
2023-06-17T01:57:09.408Z,15.41
2023-06-17T01:59:37.329Z,15.40
2023-06-17T02:02:05.457Z,15.39
2023-06-17T02:04:33.359Z,15.39
2023-06-17T02:07:01.538Z,15.38
2023-06-17T02:09:29.804Z,15.37
2023-06-17T02:11:57.880Z,15.37
2023-06-17T02:14:26.167Z,15.37
2023-06-17T02:16:54.388Z,15.37
2023-06-17T02:19:23.624Z,15.37
2023-06-17T02:21:52.172Z,15.36
2023-06-17T02:24:22.425Z,15.34
2023-06-17T02:26:51.444Z,15.34
2023-06-17T02:29:19.493Z,15.33
2023-06-17T02:31:47.704Z,15.31
2023-06-17T02:34:16.161Z,15.30
2023-06-17T02:36:45.942Z,15.27
2023-06-17T02:39:13.894Z,15.24
2023-06-17T02:41:43.564Z,15.22
2023-06-17T02:44:11.630Z,15.22
2023-06-17T02:46:39.593Z,15.22
2023-06-17T02:49:07.542Z,15.22
2023-06-17T02:51:35.529Z,15.23
2023-06-17T02:54:03.993Z,15.23
2023-06-17T02:56:32.046Z,15.24
2023-06-17T02:59:00.667Z,15.23
2023-06-17T03:01:30.050Z,15.23
2023-06-17T03:04:02.753Z,15.23
2023-06-17T03:06:35.255Z,15.25
2023-06-17T03:09:07.091Z,15.25
2023-06-17T03:11:36.561Z,15.24
2023-06-17T03:14:04.966Z,15.24
2023-06-17T03:16:35.037Z,15.26
2023-06-17T03:19:06.747Z,15.27
2023-06-17T03:21:42.097Z,15.28
2023-06-17T03:24:10.955Z,15.30
2023-06-17T03:26:39.897Z,15.31
2023-06-17T03:29:08.005Z,15.34
2023-06-17T03:31:36.483Z,15.36
2023-06-17T03:34:04.574Z,15.38
2023-06-17T03:36:32.672Z,15.40
2023-06-17T03:39:00.703Z,15.43
2023-06-17T03:41:33.420Z,15.46
2023-06-17T03:44:01.935Z,15.49
2023-06-17T03:46:30.140Z,15.52
2023-06-17T03:48:58.680Z,15.55
2023-06-17T03:51:26.792Z,15.58
2023-06-17T03:53:55.972Z,15.62
2023-06-17T03:56:24.893Z,15.66
2023-06-17T03:58:55.302Z,15.70
2023-06-17T05:04:16.358Z,17.47
2023-06-17T09:14:02.154Z,25.85
2023-06-17T10:29:42.900Z,27.02
2023-06-17T13:43:00.485Z,26.85
2023-06-17T13:45:29.157Z,26.72
2023-06-17T13:52:55.013Z,26.78
2023-06-17T14:14:27.484Z,25.76
2023-06-17T14:50:41.692Z,25.52
2023-06-17T15:22:01.592Z,25.09
2023-06-17T15:24:29.849Z,25.02
2023-06-17T16:09:00.861Z,25.05
2023-06-17T16:26:08.950Z,25.04
2023-06-17T16:57:23.320Z,23.05
2023-06-17T17:39:13.380Z,21.70
2023-06-17T17:41:41.446Z,21.94
2023-06-17T17:44:09.892Z,22.04
2023-06-17T18:30:26.235Z,20.24
2023-06-17T18:42:24.499Z,20.06
2023-06-17T18:49:50.737Z,19.91
2023-06-17T19:04:37.811Z,19.50
2023-06-17T19:12:00.724Z,19.36
2023-06-17T19:14:28.900Z,19.31
2023-06-17T19:16:57.103Z,19.24
2023-06-17T19:19:25.443Z,19.14
2023-06-17T19:34:58.934Z,18.60
2023-06-17T19:37:29.080Z,18.54
2023-06-17T19:39:57.463Z,18.48
2023-06-17T19:47:21.450Z,18.28
2023-06-17T19:49:49.804Z,18.23
2023-06-17T19:57:02.066Z,18.03
2023-06-17T19:59:30.464Z,17.97
2023-06-17T20:01:58.770Z,17.92
2023-06-17T20:13:54.396Z,17.55
2023-06-17T20:26:03.056Z,17.16
2023-06-17T20:40:16.910Z,16.87
2023-06-17T20:43:55.049Z,16.80
2023-06-17T20:46:23.348Z,16.73
2023-06-17T20:48:51.529Z,16.67
2023-06-17T20:56:02.800Z,16.57
2023-06-17T20:58:30.935Z,16.53
2023-06-17T21:00:59.096Z,16.49
2023-06-17T21:13:09.600Z,16.23
2023-06-17T21:15:39.100Z,16.20
2023-06-17T21:18:07.344Z,16.14
2023-06-17T21:39:43.047Z,15.76
2023-06-17T21:42:11.775Z,15.75
2023-06-17T21:44:40.477Z,15.71
2023-06-17T21:56:44.037Z,15.55
2023-06-17T21:59:13.269Z,15.53
2023-06-17T22:11:21.827Z,15.37
2023-06-17T22:23:19.011Z,15.26
2023-06-17T22:25:47.559Z,15.23
2023-06-17T22:42:39.902Z,15.19
2023-06-17T22:59:30.928Z,15.15
2023-06-17T23:06:49.933Z,15.12
2023-06-17T23:14:02.923Z,15.06
2023-06-17T23:21:14.904Z,15.17
2023-06-17T23:23:43.557Z,15.23
2023-06-17T23:35:47.221Z,15.52
